Time,TemperatureF,DewpointF,PressureIn,WindDirection,WindDirectionDegrees,WindSpeedMPH,WindSpeedGustMPH,Humidity,HourlyPrecipIn,Conditions,Clouds,dailyrainin,SoftwareType,DateUTC
2013-11-12 00:07:00,48.3,28.0,30.00,SW,218,0.0,2.0,46,0.00,,,0.00,weatherlink.com 1.10,2013-11-12 05:07:00,
2013-11-12 00:22:00,48.5,29.0,30.00,NNW,333,0.0,3.0,48,0.00,,,0.00,weatherlink.com 1.10,2013-11-12 05:22:00,
2013-11-12 00:37:00,47.8,28.0,30.00,NNW,333,0.0,1.0,47,0.00,,,0.00,weatherlink.com 1.10,2013-11-12 05:37:00,
2013-11-12 00:52:00,48.0,27.0,30.00,NW,322,0.0,2.0,45,0.00,,,0.00,weatherlink.com 1.10,2013-11-12 05:52:00,
2013-11-12 01:07:00,48.1,28.0,29.99,NW,322,0.0,0.0,46,0.00,,,0.00,weatherlink.com 1.10,2013-11-12 06:07:00,
2013-11-12 01:22:00,48.1,29.0,29.99,NW,322,0.0,0.0,47,0.00,,,0.00,weatherlink.com 1.10,2013-11-12 06:22:00,
2013-11-12 01:37:00,48.0,29.0,29.99,NW,322,0.0,2.0,48,0.00,,,0.00,weatherlink.com 1.10,2013-11-12 06:37:00,
2013-11-12 01:52:00,49.2,32.0,29.99,NNW,340,1.0,7.0,51,0.00,,,0.00,weatherlink.com 1.10,2013-11-12 06:52:00,
2013-11-12 02:07:00,49.6,33.0,29.98,NNE,24,1.0,3.0,53,0.00,,,0.00,weatherlink.com 1.10,2013-11-12 07:07:00,
2013-11-12 02:22:00,50.1,33.0,29.99,North,350,3.0,6.0,53,0.00,,,0.00,weatherlink.com 1.10,2013-11-12 07:22:00,
2013-11-12 02:37:00,50.0,34.0,29.99,NNE,27,1.0,2.0,54,0.00,,,0.00,weatherlink.com 1.10,2013-11-12 07:37:00,
2013-11-12 02:52:00,49.9,35.0,29.99,South,184,3.0,3.0,56,0.00,,,0.00,weatherlink.com 1.10,2013-11-12 07:52:00,
2013-11-12 03:07:00,49.9,35.0,29.99,WSW,249,1.0,5.0,56,0.00,,,0.00,weatherlink.com 1.10,2013-11-12 08:07:00,
2013-11-12 03:22:00,49.9,35.0,29.98,SE,139,0.0,4.0,57,0.00,,,0.00,weatherlink.com 1.10,2013-11-12 08:22:00,
2013-11-12 03:37:00,49.9,35.0,29.98,WNW,301,5.0,6.0,56,0.00,,,0.00,weatherlink.com 1.10,2013-11-12 08:37:00,
2013-11-12 03:52:00,50.1,35.0,29.98,SE,136,1.0,11.0,57,0.00,,,0.00,weatherlink.com 1.10,2013-11-12 08:52:00,
2013-11-12 04:07:00,49.8,35.0,29.98,WNW,296,4.0,7.0,58,0.00,,,0.00,weatherlink.com 1.10,2013-11-12 09:07:00,
2013-11-12 04:22:00,49.2,37.0,30.00,NE,47,2.0,7.0,62,0.00,,,0.00,weatherlink.com 1.10,2013-11-12 09:22:00,
2013-11-12 04:38:00,47.8,38.0,30.03,NE,45,2.0,8.0,70,0.00,,,0.00,weatherlink.com 1.10,2013-11-12 09:38:00,
2013-11-12 04:53:00,44.7,38.0,30.05,ESE,117,7.0,9.0,77,0.00,,,0.00,weatherlink.com 1.10,2013-11-12 09:53:00,
2013-11-12 05:08:00,43.3,37.0,30.07,NNE,28,0.0,4.0,77,0.00,,,0.00,weatherlink.com 1.10,2013-11-12 10:08:00,
2013-11-12 05:23:00,42.2,34.0,30.08,NE,52,6.0,8.0,73,0.00,,,0.00,weatherlink.com 1.10,2013-11-12 10:23:00,
2013-11-12 05:38:00,41.1,33.0,30.09,NNW,338,1.0,8.0,74,0.00,,,0.00,weatherlink.com 1.10,2013-11-12 10:38:00,
2013-11-12 05:53:00,40.2,32.0,30.10,East,88,2.0,6.0,73,0.00,,,0.00,weatherlink.com 1.10,2013-11-12 10:53:00,
2013-11-12 06:08:00,39.1,30.0,30.11,WNW,282,5.0,5.0,71,0.00,,,0.00,weatherlink.com 1.10,2013-11-12 11:08:00,
2013-11-12 06:23:00,38.2,30.0,30.12,ENE,78,2.0,8.0,72,0.00,,,0.00,weatherlink.com 1.10,2013-11-12 11:23:00,
2013-11-12 06:38:00,37.7,29.0,30.14,NNE,24,0.0,9.0,71,0.00,,,0.00,weatherlink.com 1.10,2013-11-12 11:38:00,
2013-11-12 06:53:00,37.3,29.0,30.15,ENE,70,2.0,5.0,71,0.00,,,0.00,weatherlink.com 1.10,2013-11-12 11:53:00,
2013-11-12 07:08:00,36.6,28.0,30.17,NNE,13,2.0,9.0,72,0.00,,,0.00,weatherlink.com 1.10,2013-11-12 12:08:00,
2013-11-12 07:23:00,36.1,28.0,30.18,NE,38,2.0,5.0,73,0.00,,,0.00,weatherlink.com 1.10,2013-11-12 12:23:00,
2013-11-12 07:38:00,35.2,28.0,30.20,NE,52,1.0,7.0,75,0.00,,,0.00,weatherlink.com 1.10,2013-11-12 12:38:00,
2013-11-12 07:53:00,34.3,29.0,30.20,North,5,3.0,6.0,80,0.00,,,0.00,weatherlink.com 1.10,2013-11-12 12:53:00,
2013-11-12 08:08:00,34.1,29.0,30.21,NNW,334,2.0,7.0,80,0.00,,,0.00,weatherlink.com 1.10,2013-11-12 13:08:00,
2013-11-12 08:23:00,34.3,28.0,30.22,NNW,335,3.0,10.0,77,0.00,,,0.00,weatherlink.com 1.10,2013-11-12 13:23:00,
2013-11-12 08:38:00,34.4,28.0,30.23,South,178,1.0,6.0,77,0.00,,,0.00,weatherlink.com 1.10,2013-11-12 13:38:00,
2013-11-12 08:53:00,34.5,28.0,30.23,ENE,59,0.0,5.0,77,0.00,,,0.00,weatherlink.com 1.10,2013-11-12 13:53:00,
2013-11-12 09:09:00,34.6,25.0,30.25,NNE,18,2.0,7.0,69,0.00,,,0.00,weatherlink.com 1.10,2013-11-12 14:09:00,
2013-11-12 09:24:00,34.3,24.0,30.25,North,351,3.0,6.0,66,0.00,,,0.00,weatherlink.com 1.10,2013-11-12 14:24:00,
2013-11-12 09:39:00,34.2,24.0,30.26,SSE,168,2.0,9.0,66,0.00,,,0.00,weatherlink.com 1.10,2013-11-12 14:39:00,
2013-11-12 09:54:00,34.2,23.0,30.26,North,5,2.0,5.0,64,0.00,,,0.00,weatherlink.com 1.10,2013-11-12 14:54:00,
2013-11-12 10:09:00,34.3,23.0,30.26,NE,34,1.0,7.0,64,0.00,,,0.00,weatherlink.com 1.10,2013-11-12 15:09:00,
2013-11-12 10:24:00,34.6,23.0,30.26,NNE,33,3.0,6.0,63,0.00,,,0.00,weatherlink.com 1.10,2013-11-12 15:24:00,
2013-11-12 10:39:00,34.6,22.0,30.26,NNW,348,6.0,7.0,61,0.00,,,0.00,weatherlink.com 1.10,2013-11-12 15:39:00,
2013-11-12 10:54:00,34.7,22.0,30.26,NNE,15,1.0,11.0,60,0.00,,,0.00,weatherlink.com 1.10,2013-11-12 15:54:00,
2013-11-12 11:09:00,34.8,22.0,30.27,NE,38,2.0,7.0,61,0.00,,,0.00,weatherlink.com 1.10,2013-11-12 16:09:00,
2013-11-12 11:24:00,34.9,22.0,30.26,North,360,1.0,9.0,59,0.00,,,0.00,weatherlink.com 1.10,2013-11-12 16:24:00,
2013-11-12 11:39:00,35.1,23.0,30.26,NNE,22,4.0,9.0,61,0.00,,,0.00,weatherlink.com 1.10,2013-11-12 16:39:00,
2013-11-12 11:54:00,35.2,22.0,30.26,NNE,26,1.0,5.0,58,0.00,,,0.00,weatherlink.com 1.10,2013-11-12 16:54:00,
2013-11-12 12:09:00,35.1,21.0,30.25,SE,128,2.0,7.0,58,0.00,,,0.00,weatherlink.com 1.10,2013-11-12 17:09:00,
2013-11-12 12:24:00,35.3,21.0,30.25,NNE,17,4.0,7.0,57,0.00,,,0.00,weatherlink.com 1.10,2013-11-12 17:24:00,
2013-11-12 12:39:00,35.8,20.0,30.25,NNE,18,2.0,8.0,54,0.00,,,0.00,weatherlink.com 1.10,2013-11-12 17:39:00,
2013-11-12 12:54:00,36.1,20.0,30.25,NNE,31,2.0,11.0,52,0.00,,,0.00,weatherlink.com 1.10,2013-11-12 17:54:00,
2013-11-12 13:09:00,36.4,21.0,30.25,NE,45,1.0,8.0,53,0.00,,,0.00,weatherlink.com 1.10,2013-11-12 18:09:00,
2013-11-12 13:24:00,36.3,20.0,30.25,NNE,19,3.0,11.0,51,0.00,,,0.00,weatherlink.com 1.10,2013-11-12 18:24:00,
2013-11-12 13:39:00,36.0,18.0,30.26,NE,51,2.0,8.0,49,0.00,,,0.00,weatherlink.com 1.10,2013-11-12 18:39:00,
2013-11-12 14:09:00,36.0,17.0,30.26,ESE,115,5.0,9.0,46,0.00,,,0.00,weatherlink.com 1.10,2013-11-12 19:09:00,
2013-11-12 14:24:00,36.1,17.0,30.27,NE,38,4.0,14.0,46,0.00,,,0.00,weatherlink.com 1.10,2013-11-12 19:24:00,
2013-11-12 14:39:00,36.4,17.0,30.27,North,11,3.0,7.0,46,0.00,,,0.00,weatherlink.com 1.10,2013-11-12 19:39:00,
2013-11-12 14:54:00,36.7,18.0,30.28,NNE,17,1.0,4.0,46,0.00,,,0.00,weatherlink.com 1.10,2013-11-12 19:54:00,
2013-11-12 15:09:00,36.4,18.0,30.29,NNE,29,1.0,9.0,47,0.00,,,0.00,weatherlink.com 1.10,2013-11-12 20:09:00,
2013-11-12 15:24:00,36.3,17.0,30.29,North,11,1.0,7.0,46,0.00,,,0.00,weatherlink.com 1.10,2013-11-12 20:24:00,
2013-11-12 15:39:00,35.9,17.0,30.29,NNE,32,3.0,9.0,46,0.00,,,0.00,weatherlink.com 1.10,2013-11-12 20:39:00,
2013-11-12 15:54:00,35.7,16.0,30.30,North,10,4.0,7.0,45,0.00,,,0.00,weatherlink.com 1.10,2013-11-12 20:54:00,
2013-11-12 16:09:00,35.5,16.0,30.31,NW,325,2.0,8.0,46,0.00,,,0.00,weatherlink.com 1.10,2013-11-12 21:09:00,
2013-11-12 16:24:00,35.1,17.0,30.31,NNE,31,6.0,10.0,47,0.00,,,0.00,weatherlink.com 1.10,2013-11-12 21:24:00,
2013-11-12 16:39:00,34.7,16.0,30.32,NE,34,6.0,11.0,47,0.00,,,0.00,weatherlink.com 1.10,2013-11-12 21:39:00,
2013-11-12 16:54:00,34.1,16.0,30.33,NNE,17,0.0,5.0,47,0.00,,,0.00,weatherlink.com 1.10,2013-11-12 21:54:00,
2013-11-12 17:09:00,33.5,15.0,30.34,NNE,15,1.0,10.0,47,0.00,,,0.00,weatherlink.com 1.10,2013-11-12 22:09:00,
2013-11-12 17:24:00,33.2,16.0,30.34,North,360,3.0,6.0,49,0.00,,,0.00,weatherlink.com 1.10,2013-11-12 22:24:00,
2013-11-12 17:39:00,32.8,15.0,30.34,North,5,1.0,3.0,49,0.00,,,0.00,weatherlink.com 1.10,2013-11-12 22:39:00,
2013-11-12 17:54:00,33.1,15.0,30.35,NNW,334,0.0,8.0,48,0.00,,,0.00,weatherlink.com 1.10,2013-11-12 22:54:00,
2013-11-12 18:09:00,32.6,15.0,30.35,NNE,22,0.0,5.0,49,0.00,,,0.00,weatherlink.com 1.10,2013-11-12 23:09:00,
2013-11-12 18:24:00,32.5,15.0,30.36,NNW,336,0.0,5.0,49,0.00,,,0.00,weatherlink.com 1.10,2013-11-12 23:24:00,
2013-11-12 18:39:00,32.2,16.0,30.36,ENE,60,2.0,10.0,51,0.00,,,0.00,weatherlink.com 1.10,2013-11-12 23:39:00,
2013-11-12 18:54:00,32.2,16.0,30.37,NW,311,4.0,6.0,52,0.00,,,0.00,weatherlink.com 1.10,2013-11-12 23:54:00,
2013-11-12 19:09:00,32.0,16.0,30.37,North,5,0.0,5.0,52,0.00,,,0.00,weatherlink.com 1.10,2013-11-13 00:09:00,
2013-11-12 19:25:00,31.9,16.0,30.38,WNW,303,0.0,7.0,53,0.00,,,0.00,weatherlink.com 1.10,2013-11-13 00:25:00,
2013-11-12 19:40:00,31.8,17.0,30.38,North,9,2.0,10.0,55,0.00,,,0.00,weatherlink.com 1.10,2013-11-13 00:40:00,
2013-11-12 19:55:00,31.2,17.0,30.38,South,187,0.0,2.0,56,0.00,,,0.00,weatherlink.com 1.10,2013-11-13 00:55:00,
2013-11-12 20:10:00,30.8,17.0,30.39,South,177,0.0,3.0,58,0.00,,,0.00,weatherlink.com 1.10,2013-11-13 01:10:00,
2013-11-12 20:25:00,31.0,18.0,30.39,North,355,1.0,4.0,58,0.00,,,0.00,weatherlink.com 1.10,2013-11-13 01:25:00,
2013-11-12 20:40:00,30.8,17.0,30.39,SSW,199,0.0,4.0,58,0.00,,,0.00,weatherlink.com 1.10,2013-11-13 01:40:00,
2013-11-12 20:55:00,30.5,18.0,30.39,NE,39,1.0,3.0,59,0.00,,,0.00,weatherlink.com 1.10,2013-11-13 01:55:00,
2013-11-12 21:10:00,30.3,18.0,30.40,NNW,341,0.0,5.0,61,0.00,,,0.00,weatherlink.com 1.10,2013-11-13 02:10:00,
2013-11-12 21:25:00,30.1,19.0,30.40,SSW,193,0.0,4.0,63,0.00,,,0.00,weatherlink.com 1.10,2013-11-13 02:25:00,
2013-11-12 21:40:00,30.2,19.0,30.41,WSW,256,2.0,4.0,64,0.00,,,0.00,weatherlink.com 1.10,2013-11-13 02:40:00,
2013-11-12 21:55:00,30.2,19.0,30.41,WNW,298,0.0,3.0,64,0.00,,,0.00,weatherlink.com 1.10,2013-11-13 02:55:00,
2013-11-12 22:10:00,30.3,20.0,30.41,NNE,24,2.0,12.0,65,0.00,,,0.00,weatherlink.com 1.10,2013-11-13 03:10:00,
2013-11-12 22:25:00,30.4,19.0,30.41,NNE,12,1.0,5.0,64,0.00,,,0.00,weatherlink.com 1.10,2013-11-13 03:25:00,
2013-11-12 22:40:00,30.3,19.0,30.42,NNE,30,0.0,5.0,64,0.00,,,0.00,weatherlink.com 1.10,2013-11-13 03:40:00,
2013-11-12 22:55:00,30.3,19.0,30.42,North,355,4.0,9.0,64,0.00,,,0.00,weatherlink.com 1.10,2013-11-13 03:55:00,
2013-11-12 23:10:00,30.2,19.0,30.41,ENE,61,3.0,7.0,64,0.00,,,0.00,weatherlink.com 1.10,2013-11-13 04:10:00,
2013-11-12 23:25:00,30.1,19.0,30.41,North,355,7.0,8.0,63,0.00,,,0.00,weatherlink.com 1.10,2013-11-13 04:25:00,
2013-11-12 23:40:00,30.1,19.0,30.41,SE,130,4.0,13.0,63,0.00,,,0.00,weatherlink.com 1.10,2013-11-13 04:40:00,
2013-11-12 23:55:00,30.3,19.0,30.41,NNE,19,1.0,10.0,63,0.00,,,0.00,weatherlink.com 1.10,2013-11-13 04:55:00,